createdAt,value
2023-01-13T00:01:29.099Z,4.37
2023-01-13T00:03:57.287Z,4.42
2023-01-13T00:06:26.187Z,4.28
2023-01-13T00:08:55.477Z,4.37
2023-01-13T00:11:26.208Z,4.33
2023-01-13T00:13:55.641Z,4.36
2023-01-13T00:16:24.477Z,4.59
2023-01-13T00:18:52.106Z,4.34
2023-01-13T00:21:23.051Z,4.36
2023-01-13T00:23:59.016Z,4.16
2023-01-13T00:26:30.873Z,4.09
2023-01-13T00:28:59.031Z,4.12
2023-01-13T00:31:29.687Z,4.20
2023-01-13T00:34:01.642Z,4.18
2023-01-13T00:36:31.451Z,4.08
2023-01-13T00:38:59.958Z,4.20
2023-01-13T00:41:29.314Z,4.10
2023-01-13T00:43:57.853Z,4.23
2023-01-13T00:46:25.666Z,4.05
2023-01-13T00:48:54.231Z,3.94
2023-01-13T00:51:22.606Z,4.07
2023-01-13T00:53:52.034Z,4.04
2023-01-13T00:56:38.551Z,4.03
2023-01-13T00:59:12.492Z,3.92
2023-01-13T01:01:41.133Z,3.96
2023-01-13T01:04:09.552Z,4.05
2023-01-13T01:06:37.737Z,4.05
2023-01-13T01:09:06.631Z,4.20
2023-01-13T01:11:34.922Z,4.13
2023-01-13T01:14:04.410Z,4.34
2023-01-13T01:16:33.385Z,4.24
2023-01-13T01:19:02.336Z,4.13
2023-01-13T01:21:35.277Z,4.03
2023-01-13T01:24:06.236Z,4.14
2023-01-13T01:26:35.981Z,4.04
2023-01-13T01:29:04.776Z,3.99
2023-01-13T01:31:33.671Z,4.15
2023-01-13T01:34:02.204Z,4.14
2023-01-13T01:36:30.351Z,4.25
2023-01-13T01:38:59.346Z,4.32
2023-01-13T01:41:29.961Z,4.23
2023-01-13T01:44:05.951Z,4.23
2023-01-13T01:46:40.613Z,4.23
2023-01-13T01:49:31.613Z,4.19
2023-01-13T01:52:03.882Z,4.26
2023-01-13T01:54:56.857Z,4.30
2023-01-13T01:57:54.261Z,4.40
2023-01-13T02:00:22.352Z,4.40
2023-01-13T02:02:51.667Z,4.37
2023-01-13T02:05:20.064Z,4.35
2023-01-13T02:07:49.137Z,4.47
2023-01-13T02:10:21.159Z,4.49
2023-01-13T02:12:50.549Z,4.54
2023-01-13T02:15:30.696Z,4.27
2023-01-13T02:18:36.077Z,4.29
2023-01-13T02:21:07.918Z,4.42
2023-01-13T02:24:15.731Z,4.30
2023-01-13T02:27:06.773Z,4.41
2023-01-13T02:30:15.680Z,4.52
2023-01-13T02:32:51.331Z,4.38
2023-01-13T02:35:33.417Z,4.34
2023-01-13T02:38:02.189Z,4.48
2023-01-13T02:40:40.891Z,4.62
2023-01-13T02:43:41.535Z,4.56
2023-01-13T02:46:30.478Z,4.52
2023-01-13T02:49:04.391Z,4.58
2023-01-13T02:51:32.879Z,4.63
2023-01-13T02:54:08.939Z,4.78
2023-01-13T02:56:40.588Z,4.68
2023-01-13T02:59:09.636Z,4.65
2023-01-13T03:01:37.371Z,4.83
2023-01-13T03:04:14.937Z,4.91
2023-01-13T03:06:59.093Z,4.64
2023-01-13T03:09:38.188Z,4.74
2023-01-13T03:12:47.175Z,4.67
2023-01-13T03:15:25.330Z,4.81
2023-01-13T03:18:03.489Z,4.83
2023-01-13T03:20:34.887Z,4.75
2023-01-13T03:23:21.275Z,4.75
2023-01-13T03:26:07.252Z,4.69
2023-01-13T03:28:42.169Z,4.58
2023-01-13T03:31:15.518Z,5.00
2023-01-13T03:33:49.700Z,5.01
2023-01-13T03:36:18.393Z,4.65
2023-01-13T03:38:51.763Z,4.94
2023-01-13T03:41:28.007Z,4.78
2023-01-13T03:44:24.582Z,4.76
2023-01-13T03:46:55.026Z,4.57
2023-01-13T03:49:46.824Z,4.64
2023-01-13T03:52:20.766Z,4.59
2023-01-13T03:54:52.792Z,4.58
2023-01-13T03:57:24.613Z,4.66
2023-01-13T03:59:57.158Z,4.73
2023-01-13T04:02:38.620Z,5.11
2023-01-13T04:05:09.387Z,4.95
2023-01-13T04:07:50.728Z,5.03
2023-01-13T04:10:23.844Z,5.29
2023-01-13T04:13:01.957Z,5.01
2023-01-13T04:15:36.363Z,4.78
2023-01-13T04:18:16.270Z,4.86
2023-01-13T04:20:46.906Z,4.82
2023-01-13T04:23:17.367Z,4.89
2023-01-13T04:25:46.006Z,4.85
2023-01-13T04:28:14.504Z,4.84
2023-01-13T04:30:42.901Z,4.81
2023-01-13T04:33:12.326Z,4.92
2023-01-13T04:35:40.529Z,5.16
2023-01-13T04:38:11.042Z,5.30
2023-01-13T04:40:40.324Z,5.17
2023-01-13T04:43:08.393Z,5.12
2023-01-13T04:45:36.846Z,4.91
2023-01-13T04:48:06.290Z,5.03
2023-01-13T04:50:36.790Z,4.91
2023-01-13T04:53:07.573Z,5.00
2023-01-13T04:55:36.515Z,5.05
2023-01-13T04:58:05.948Z,5.09
2023-01-13T05:00:34.808Z,4.93
2023-01-13T05:03:03.065Z,5.05
2023-01-13T05:05:31.260Z,4.95
2023-01-13T05:08:01.277Z,5.31
2023-01-13T05:10:29.294Z,5.08
2023-01-13T05:13:17.022Z,5.07
2023-01-13T05:16:06.874Z,4.91
2023-01-13T05:18:35.158Z,4.99
2023-01-13T05:21:26.528Z,5.27
2023-01-13T05:24:16.097Z,5.52
2023-01-13T05:26:44.889Z,5.19
2023-01-13T05:29:12.566Z,5.06
2023-01-13T05:31:40.417Z,5.02
2023-01-13T05:34:08.258Z,5.06
2023-01-13T05:36:36.447Z,4.92
2023-01-13T05:39:06.513Z,5.04
2023-01-13T05:41:53.348Z,5.07
2023-01-13T05:44:21.427Z,5.18
2023-01-13T05:46:51.763Z,5.06
2023-01-13T05:49:20.341Z,5.17
2023-01-13T05:51:48.317Z,5.21
2023-01-13T05:54:16.367Z,5.29
2023-01-13T05:56:44.226Z,5.24
2023-01-13T05:59:15.670Z,5.23
2023-01-13T06:01:46.051Z,5.29
2023-01-13T06:04:22.770Z,5.53
2023-01-13T06:06:54.366Z,5.39
2023-01-13T06:09:22.899Z,5.25
2023-01-13T06:11:51.742Z,5.23
2023-01-13T06:14:25.253Z,5.24
2023-01-13T06:16:59.299Z,5.17
2023-01-13T06:19:27.318Z,5.24
2023-01-13T06:21:58.242Z,5.07
2023-01-13T06:24:28.572Z,5.08
2023-01-13T06:27:00.685Z,5.10
2023-01-13T06:29:30.295Z,5.17
2023-01-13T06:32:05.748Z,5.13
2023-01-13T06:34:35.214Z,5.21
2023-01-13T06:37:03.912Z,4.99
2023-01-13T06:39:32.939Z,5.12
2023-01-13T06:42:22.036Z,5.08
2023-01-13T06:44:51.628Z,5.13
2023-01-13T06:47:19.476Z,5.12
2023-01-13T06:49:49.698Z,5.00
2023-01-13T06:52:20.273Z,5.13
2023-01-13T06:54:48.522Z,4.85
2023-01-13T06:57:25.244Z,5.39
2023-01-13T06:59:53.801Z,5.29
2023-01-13T07:02:22.308Z,5.20
2023-01-13T07:04:54.281Z,5.52
2023-01-13T07:07:23.215Z,5.35
2023-01-13T07:09:56.227Z,5.17
2023-01-13T07:12:26.399Z,5.51
2023-01-13T07:15:13.043Z,5.39
2023-01-13T07:17:41.671Z,5.59
2023-01-13T07:20:10.211Z,5.58
2023-01-13T07:22:38.720Z,5.67
2023-01-13T07:25:07.519Z,5.60
2023-01-13T07:27:35.583Z,5.78
2023-01-13T07:30:05.288Z,5.82
2023-01-13T07:32:34.316Z,5.74
2023-01-13T07:35:05.813Z,6.04
2023-01-13T07:37:39.637Z,6.23
2023-01-13T07:40:13.416Z,6.21
2023-01-13T07:43:01.575Z,6.23
2023-01-13T07:45:30.643Z,5.95
2023-01-13T07:48:07.718Z,5.89
2023-01-13T07:50:35.843Z,5.96
2023-01-13T07:53:05.118Z,5.99
2023-01-13T07:55:33.360Z,6.02
2023-01-13T07:58:01.322Z,6.16
2023-01-13T08:03:11.752Z,6.27
2023-01-13T08:05:39.282Z,6.62
2023-01-13T08:08:15.902Z,6.47
2023-01-13T08:10:47.302Z,6.23
2023-01-13T08:13:21.032Z,6.25
2023-01-13T08:15:52.157Z,6.18
2023-01-13T08:18:22.415Z,5.99
2023-01-13T08:20:55.318Z,6.28
2023-01-13T08:23:24.563Z,6.50
2023-01-13T08:25:55.592Z,6.35
2023-01-13T08:28:24.250Z,6.30
2023-01-13T08:30:54.215Z,6.09
2023-01-13T08:33:22.146Z,6.40
2023-01-13T08:35:52.683Z,6.46
2023-01-13T08:38:21.933Z,6.45
2023-01-13T08:40:51.529Z,6.28
2023-01-13T08:43:19.540Z,6.18
2023-01-13T08:45:57.290Z,6.08
2023-01-13T08:48:26.492Z,6.08
2023-01-13T08:51:02.518Z,6.15
2023-01-13T08:53:31.281Z,6.27
2023-01-13T08:56:02.771Z,6.26
2023-01-13T08:58:35.458Z,6.03
2023-01-13T09:01:06.204Z,6.13
2023-01-13T09:03:33.982Z,5.97
2023-01-13T09:06:03.847Z,6.16
2023-01-13T09:08:31.977Z,6.11
2023-01-13T09:11:00.271Z,6.03
2023-01-13T09:13:28.478Z,6.22
2023-01-13T09:15:58.238Z,6.26
2023-01-13T09:18:32.064Z,6.35
2023-01-13T09:21:00.290Z,6.35
2023-01-13T09:23:31.771Z,5.97
2023-01-13T09:26:02.801Z,6.00
2023-01-13T09:28:33.062Z,6.12
2023-01-13T09:31:02.781Z,6.16
2023-01-13T09:33:50.304Z,6.02
2023-01-13T09:36:19.153Z,6.21
2023-01-13T09:38:53.632Z,5.76
2023-01-13T09:41:43.714Z,6.04
2023-01-13T09:44:25.360Z,5.87
2023-01-13T09:47:04.153Z,5.88
2023-01-13T09:49:41.276Z,6.03
2023-01-13T09:52:16.048Z,6.26
2023-01-13T09:54:50.453Z,6.16
2023-01-13T09:57:20.906Z,6.36
2023-01-13T09:59:51.466Z,6.61
2023-01-13T10:02:27.193Z,6.60
2023-01-13T10:05:16.650Z,6.63
2023-01-13T10:07:55.235Z,6.90
2023-01-13T10:10:45.195Z,6.87
2023-01-13T10:13:22.841Z,6.68
2023-01-13T10:16:23.206Z,6.76
2023-01-13T10:19:04.001Z,6.38
2023-01-13T10:21:59.125Z,6.73
2023-01-13T10:24:59.413Z,6.25
2023-01-13T10:27:37.944Z,6.15
2023-01-13T10:30:21.456Z,5.99
2023-01-13T10:32:56.463Z,6.32
2023-01-13T10:35:59.585Z,6.29
2023-01-13T10:38:32.238Z,6.20
2023-01-13T10:41:03.112Z,6.31
2023-01-13T10:43:34.262Z,6.85
2023-01-13T10:46:08.484Z,6.74
2023-01-13T10:48:41.606Z,6.59
2023-01-13T10:51:37.948Z,6.41
2023-01-13T10:54:15.373Z,6.33
2023-01-13T10:56:46.344Z,6.17
2023-01-13T10:59:16.145Z,6.66
2023-01-13T11:01:59.153Z,5.73
2023-01-13T11:04:43.240Z,5.82
2023-01-13T11:07:33.546Z,5.68
2023-01-13T11:10:04.866Z,6.05
2023-01-13T11:12:35.831Z,5.73
2023-01-13T11:15:14.733Z,5.80
2023-01-13T11:17:54.213Z,5.64
2023-01-13T11:20:32.521Z,6.23
2023-01-13T11:23:11.546Z,6.55
2023-01-13T11:25:45.369Z,6.58
2023-01-13T11:28:38.979Z,6.34
2023-01-13T11:31:35.452Z,6.24
2023-01-13T11:34:28.731Z,6.51
2023-01-13T11:37:00.287Z,6.20
2023-01-13T11:40:04.320Z,6.10
2023-01-13T11:42:40.600Z,6.24
2023-01-13T11:45:36.413Z,6.29
2023-01-13T11:48:08.144Z,6.25
2023-01-13T11:51:19.207Z,6.49
2023-01-13T11:54:06.504Z,6.08
2023-01-13T11:56:44.210Z,6.33
2023-01-13T11:59:51.258Z,6.16
2023-01-13T12:02:22.869Z,6.36
2023-01-13T12:05:05.200Z,6.08
2023-01-13T12:07:47.304Z,6.24
2023-01-13T12:10:31.202Z,6.06
2023-01-13T12:13:45.194Z,6.12
2023-01-13T12:16:27.457Z,6.29
2023-01-13T12:19:26.219Z,5.93
2023-01-13T12:22:10.662Z,6.08
2023-01-13T12:24:51.875Z,6.17
2023-01-13T12:27:49.996Z,6.49
2023-01-13T12:30:24.259Z,6.29
2023-01-13T12:32:56.355Z,6.21
2023-01-13T12:35:43.190Z,6.40
2023-01-13T12:38:29.198Z,6.90
2023-01-13T12:41:28.135Z,6.24
2023-01-13T12:44:16.175Z,6.73
2023-01-13T12:46:58.457Z,6.71
2023-01-13T12:49:31.299Z,6.40
2023-01-13T12:52:07.924Z,6.38
2023-01-13T12:54:38.009Z,6.82
2023-01-13T12:57:17.175Z,6.52
2023-01-13T13:00:05.252Z,7.29
2023-01-13T13:03:23.979Z,6.81
2023-01-13T13:06:01.673Z,6.91
2023-01-13T13:09:04.057Z,6.81
2023-01-13T13:12:04.226Z,6.89
2023-01-13T13:14:42.470Z,7.07
2023-01-13T13:17:31.698Z,6.85
2023-01-13T13:20:05.198Z,7.03
2023-01-13T13:22:52.275Z,6.72
2023-01-13T13:25:24.441Z,6.76
2023-01-13T13:28:02.442Z,6.91
2023-01-13T13:34:02.508Z,6.81
2023-01-13T13:36:49.152Z,6.74
2023-01-13T13:39:46.850Z,7.22
2023-01-13T13:42:44.126Z,7.43
2023-01-13T13:45:43.443Z,7.09
2023-01-13T13:48:31.252Z,7.07
2023-01-13T13:51:42.431Z,7.31
2023-01-13T13:54:21.285Z,7.04
2023-01-13T13:56:53.147Z,7.59
2023-01-13T14:02:18.878Z,7.83
2023-01-13T14:04:49.570Z,7.72
2023-01-13T14:09:58.096Z,7.75
2023-01-13T14:12:28.130Z,7.65
2023-01-13T14:15:04.147Z,8.01
2023-01-13T14:17:40.189Z,8.05
2023-01-13T14:20:19.276Z,8.01
2023-01-13T14:22:53.108Z,8.25
2023-01-13T14:25:39.202Z,8.26
2023-01-13T14:31:08.486Z,8.17
2023-01-13T14:33:59.642Z,8.44
2023-01-13T14:36:38.179Z,8.51
2023-01-13T14:39:13.079Z,8.38
2023-01-13T14:41:43.741Z,8.03
2023-01-13T14:44:36.200Z,7.74
2023-01-13T14:47:28.187Z,8.03
2023-01-13T14:50:32.245Z,8.25
2023-01-13T14:53:24.577Z,7.89
2023-01-13T14:55:55.402Z,7.76
2023-01-13T14:58:29.422Z,7.78
2023-01-13T15:01:38.631Z,7.82
2023-01-13T15:04:27.080Z,7.91
2023-01-13T15:06:56.755Z,7.95
2023-01-13T15:09:35.144Z,7.91
2023-01-13T15:12:25.843Z,7.94
2023-01-13T15:15:04.095Z,7.41
2023-01-13T15:17:43.143Z,7.95
2023-01-13T15:20:24.107Z,7.41
2023-01-13T15:22:54.387Z,7.51
2023-01-13T15:25:25.214Z,7.13
2023-01-13T15:27:58.064Z,7.52
2023-01-13T15:30:38.143Z,7.46
2023-01-13T15:33:21.274Z,7.75
2023-01-13T15:35:52.822Z,7.75
2023-01-13T15:38:28.130Z,7.61
2023-01-13T15:41:04.356Z,7.73
2023-01-13T15:43:56.275Z,7.78
2023-01-13T15:46:39.914Z,7.51
2023-01-13T15:49:36.133Z,7.85
2023-01-13T15:52:15.927Z,7.94
2023-01-13T15:54:43.785Z,7.91
2023-01-13T15:57:31.877Z,7.80
2023-01-13T16:03:07.204Z,8.28
2023-01-13T16:05:46.445Z,8.02
2023-01-13T16:08:20.255Z,7.89
2023-01-13T16:10:52.390Z,8.31
2023-01-13T16:13:26.094Z,7.81
2023-01-13T16:16:00.507Z,7.46
2023-01-13T16:18:31.333Z,7.32
2023-01-13T16:21:11.291Z,7.73
2023-01-13T16:23:50.305Z,7.83
2023-01-13T16:26:31.320Z,7.62
2023-01-13T16:29:06.047Z,7.76
2023-01-13T16:31:36.264Z,7.86
2023-01-13T16:36:50.443Z,7.97
2023-01-13T16:39:24.166Z,8.15
2023-01-13T16:41:56.170Z,7.79
2023-01-13T16:44:30.115Z,7.79
2023-01-13T16:46:59.306Z,7.94
2023-01-13T16:49:32.110Z,7.98
2023-01-13T16:52:03.122Z,8.06
2023-01-13T16:54:43.402Z,8.11
2023-01-13T16:57:26.210Z,8.09
2023-01-13T16:59:58.688Z,8.34
2023-01-13T17:02:32.120Z,8.30
2023-01-13T17:05:03.400Z,8.05
2023-01-13T17:07:35.419Z,8.12
2023-01-13T17:10:16.332Z,8.25
2023-01-13T17:13:04.585Z,8.14
2023-01-13T17:15:42.405Z,7.85
2023-01-13T17:18:25.206Z,8.24
2023-01-13T17:20:58.248Z,8.20
2023-01-13T17:23:37.181Z,8.36
2023-01-13T17:26:08.114Z,8.52
2023-01-13T17:28:42.204Z,8.41
2023-01-13T17:31:12.306Z,8.36
2023-01-13T17:33:43.869Z,8.28
2023-01-13T17:36:18.075Z,8.39
2023-01-13T17:38:58.408Z,8.34
2023-01-13T17:41:30.291Z,8.20
2023-01-13T17:44:03.136Z,8.34
2023-01-13T17:46:38.284Z,8.43
2023-01-13T17:49:18.066Z,8.63
2023-01-13T17:51:48.688Z,8.66
2023-01-13T17:54:25.326Z,8.49
2023-01-13T17:57:08.335Z,8.12
2023-01-13T17:59:36.337Z,8.18
2023-01-13T18:02:09.959Z,8.26
2023-01-13T18:04:43.150Z,8.34
2023-01-13T18:07:15.305Z,8.32
2023-01-13T18:09:44.113Z,8.44
2023-01-13T18:12:16.288Z,8.43
2023-01-13T18:14:45.635Z,8.67
2023-01-13T18:17:16.108Z,8.51
2023-01-13T18:23:07.293Z,8.34
2023-01-13T18:25:55.947Z,8.33
2023-01-13T18:28:23.653Z,8.47
2023-01-13T18:30:56.885Z,8.49
2023-01-13T18:33:31.256Z,8.20
2023-01-13T18:36:14.100Z,8.30
2023-01-13T18:38:49.855Z,8.54
2023-01-13T18:41:48.042Z,8.48
2023-01-13T18:46:53.074Z,8.42
2023-01-13T18:54:45.149Z,8.51
2023-01-13T18:57:14.467Z,8.61
2023-01-13T18:59:45.048Z,8.56
2023-01-13T19:02:19.134Z,8.72
2023-01-13T19:10:10.161Z,8.77
2023-01-13T19:12:46.606Z,8.74
2023-01-13T19:15:17.668Z,8.71
2023-01-13T19:17:46.858Z,8.64
2023-01-13T19:20:18.087Z,8.69
2023-01-13T19:22:58.100Z,8.67
2023-01-13T19:25:44.284Z,8.58
2023-01-13T19:28:13.328Z,8.63
2023-01-13T19:30:45.146Z,8.71
2023-01-13T19:33:20.279Z,8.77
2023-01-13T19:35:55.320Z,8.85
2023-01-13T19:38:29.081Z,8.84
2023-01-13T19:41:29.682Z,9.00
2023-01-13T19:47:00.911Z,8.87
2023-01-13T19:52:35.296Z,8.74
2023-01-13T19:55:11.963Z,8.80
2023-01-13T19:57:47.233Z,8.82
2023-01-13T20:00:27.878Z,8.92
2023-01-13T20:11:21.198Z,8.95
2023-01-13T20:13:53.703Z,9.05
2023-01-13T20:16:28.149Z,8.94
2023-01-13T20:19:06.805Z,8.93
2023-01-13T20:21:42.206Z,9.14
2023-01-13T20:24:24.089Z,8.84
2023-01-13T20:27:10.389Z,8.74
2023-01-13T20:29:46.908Z,8.76
2023-01-13T20:32:24.763Z,8.85
2023-01-13T20:34:55.479Z,8.50
2023-01-13T20:37:25.090Z,8.63
2023-01-13T20:39:55.414Z,8.62
2023-01-13T20:42:36.290Z,8.66
2023-01-13T20:45:12.250Z,8.98
2023-01-13T20:47:45.520Z,9.02
2023-01-13T20:50:20.386Z,8.92
2023-01-13T20:52:53.082Z,8.76
2023-01-13T20:55:26.372Z,8.97
2023-01-13T20:58:00.719Z,8.94
2023-01-13T21:03:16.103Z,8.96
2023-01-13T21:05:58.090Z,8.69
2023-01-13T21:08:29.194Z,8.72
2023-01-13T21:11:04.605Z,8.71
2023-01-13T21:13:44.095Z,8.93
2023-01-13T21:16:12.874Z,8.74
2023-01-13T21:19:05.434Z,8.79
2023-01-13T21:21:37.947Z,8.90
2023-01-13T21:24:08.024Z,9.10
2023-01-13T21:26:40.355Z,8.90
2023-01-13T21:29:09.619Z,9.08
2023-01-13T21:31:39.059Z,8.66
2023-01-13T21:34:15.183Z,8.50
2023-01-13T21:36:45.066Z,8.70
2023-01-13T21:39:15.630Z,8.50
2023-01-13T21:44:54.786Z,8.13
2023-01-13T21:47:41.943Z,8.61
2023-01-13T21:50:17.214Z,8.66
2023-01-13T21:52:49.121Z,8.26
2023-01-13T21:55:21.027Z,7.81
2023-01-13T21:58:03.184Z,8.00
2023-01-13T22:00:38.112Z,7.98
2023-01-13T22:03:09.152Z,8.00
2023-01-13T22:05:38.286Z,8.33
2023-01-13T22:08:08.095Z,8.52
2023-01-13T22:11:02.036Z,8.20
2023-01-13T22:13:38.092Z,8.64
2023-01-13T22:16:16.656Z,8.52
2023-01-13T22:18:44.672Z,8.51
2023-01-13T22:21:17.800Z,8.53
2023-01-13T22:23:47.476Z,8.53
2023-01-13T22:26:20.070Z,8.81
2023-01-13T22:28:49.619Z,8.66
2023-01-13T22:31:21.528Z,8.68
2023-01-13T22:33:54.905Z,8.58
2023-01-13T22:36:24.500Z,8.87
2023-01-13T22:38:55.663Z,9.15
2023-01-13T22:41:29.088Z,8.80
2023-01-13T22:44:00.194Z,8.84
2023-01-13T22:46:30.690Z,8.62
2023-01-13T22:48:59.337Z,8.61
2023-01-13T22:51:27.450Z,8.71
2023-01-13T22:53:55.627Z,8.84
2023-01-13T22:56:28.341Z,8.84
2023-01-13T22:59:02.225Z,8.83
2023-01-13T23:01:38.096Z,8.76
2023-01-13T23:04:07.185Z,8.77
2023-01-13T23:06:37.768Z,8.85
2023-01-13T23:09:07.121Z,8.94
2023-01-13T23:11:36.220Z,8.96
2023-01-13T23:14:06.421Z,8.80
2023-01-13T23:16:37.924Z,8.90
2023-01-13T23:19:08.385Z,8.94
2023-01-13T23:21:37.832Z,8.65
2023-01-13T23:24:07.716Z,8.86
2023-01-13T23:26:37.980Z,8.96
2023-01-13T23:29:11.977Z,8.93
2023-01-13T23:31:40.752Z,8.70
2023-01-13T23:34:10.613Z,8.68
2023-01-13T23:36:41.106Z,8.69
2023-01-13T23:39:10.194Z,8.81
2023-01-13T23:41:38.561Z,8.69
2023-01-13T23:44:07.029Z,8.86
2023-01-13T23:46:35.375Z,8.85
2023-01-13T23:49:03.950Z,8.71
2023-01-13T23:51:32.613Z,8.90
2023-01-13T23:54:00.771Z,9.06
2023-01-13T23:56:30.856Z,9.10
2023-01-13T23:58:59.134Z,9.07
